Terminal Aerodrome Forecast
Issued by NWS

Home | Current Version | Previous Version | Text Only | Print | Product List | Glossary On
Versions: 1 2 3 4 5 6 7 8 9 10 11 12 13
000
FTAK31 PAJN 041723
TAFAWG
TAF
PAWG 041723Z 0418/0518 13005KT P6SM SCT150
     FM042100 VRB05KT P6SM BKN100
     FM042300 VRB05KT P6SM OVC060
     FM050200 12005KT P6SM VCSH OVC060
     FM050800 12010G18KT P6SM -RA OVC060 WS020/14025KT
     FM051400 12011G21KT 6SM -RA BR BKN030 OVC060 WS020/14025KT
      AMD LTD TO CLD VIS AND WIND 0506/0515=

USA.gov is the U.S. government's official web portal to all federal, state and local government web resources and services.